Flight Track Log - Related Links

Times and Time Zones

All times are in EDT time to prevent confusion due to time zone crossing. See the RPA3869 flight status page for this flight to view local times or setup timezone preferences in your user account.

Time Position Orientation Groundspeed Altitude Reporting Facility
EDT Latitude Longitude Course Direction KTS MPH feet Rate Location/Type
Sat 06:15:35 PM 40.6667 -74.1833 217° Southwest 150 173 500  Level New York TRACON
Sat 06:16:35 PM 40.6333 -74.2167 217° Southwest 209 241 2,100 1,900 Climbing New York TRACON
Sat 06:17:35 PM 40.6500 -74.2667 294° West 227 261 4,300 2,100 Climbing New York TRACON
Sat 06:18:35 PM 40.7167 -74.3000 339° North 238 274 6,300 2,033 Climbing New York TRACON
Sat 06:19:36 PM 40.7667 -74.3333 333° Northwest 239 275 8,400 2,150 Climbing New York TRACON
Sat 06:20:35 PM 40.8333 -74.3833 330° Northwest 243 280 10,600 1,916 Climbing New York TRACON
Sat 06:21:35 PM 40.8833 -74.4333 323° Northwest 242 278 12,200 1,467 Climbing New York TRACON
Sat 06:22:05 PM 40.9161 -74.4700 320° Northwest 250 288 12,800 1,200 Climbing New York Center
Sat 06:23:05 PM 40.9686 -74.5250 322° Northwest 263 303 14,000 600 Climbing New York Center
Sat 06:24:05 PM 41.0353 -74.5919 323° Northwest 283 326 14,000  Level New York Center
Sat 06:25:06 PM 41.1100 -74.6650 324° Northwest 321 369 14,000  Level New York Center
Sat 06:26:05 PM 41.1653 -74.7536 310° West 326 375 14,000 567 Level New York Center
Sat 06:28:06 PM 41.2481 -74.9517 299° West 309 356 15,700 956 Climbing New York Center
Sat 06:29:07 PM 41.2883 -75.0425 301° West 304 350 16,900 1,350 Climbing New York Center
Sat 06:30:06 PM 41.3211 -75.1219 299° West 288 331 18,400 1,261 Climbing New York Center
Sat 06:31:06 PM 41.3575 -75.2072 300° West 283 326 19,400 1,091 Climbing New York Center
Sat 06:32:07 PM 41.3936 -75.2953 299° West 269 310 20,600 1,160 Climbing New York Center
Sat 06:33:05 PM 41.4300 -75.3753 301° West 269 310 21,700 1,068 Climbing New York Center
Sat 06:34:05 PM 41.4664 -75.4608 300° West 269 310 22,700 885 Climbing New York Center
Sat 06:35:07 PM 41.4942 -75.5458 294° West 264 304 23,500 639 Climbing New York Center
Sat 06:36:07 PM 41.5197 -75.6361 291° West 259 298 24,000 254 Climbing New York Center
Sat 06:37:05 PM 41.5467 -75.7353 290° West 265 305 24,000  Level New York Center
Sat 06:38:05 PM 41.5758 -75.8372 291° West 279 321 24,000  Level New York Center
Sat 06:39:06 PM 41.6086 -75.9450 292° West 302 348 24,000  Level New York Center
Sat 06:40:06 PM 41.6428 -76.0672 291° West 320 368 24,000  Level New York Center
Sat 06:41:07 PM 41.6731 -76.1806 290° West 320 368 24,000  Level New York Center
Sat 06:42:05 PM 41.7056 -76.2917 291° West 320 368 24,000  Level New York Center
Sat 06:43:05 PM 41.7356 -76.4025 290° West 320 368 24,000  Level New York Center
Sat 06:44:05 PM 41.7642 -76.5022 291° West 320 368 24,000  Level New York Center
Sat 06:45:06 PM 41.8175 -76.6042 305° West 320 368 24,000  Level New York Center
Sat 06:46:07 PM 41.8817 -76.6964 313° West 332 382 24,000  Level New York Center
Sat 06:47:05 PM 41.9436 -76.7911 303° West 332 382 24,000  Level New York Center
Sat 06:48:10 PM 42.0158 -76.9078 310° West 340 391 24,000  Level Cleveland Center
Sat 06:49:10 PM 42.0792 -76.9992 313° West 340 391 24,000  Level Cleveland Center
Sat 06:50:10 PM 42.1344 -77.0997 307° West 340 391 24,000  Level Cleveland Center
Sat 06:51:10 PM 42.1856 -77.2006 304° West 334 384 24,000  Level Cleveland Center
Sat 06:52:10 PM 42.2383 -77.3017 305° West 329 379 24,000  Level Cleveland Center
Sat 06:53:10 PM 42.2933 -77.4028 306° West 329 379 24,000  Level Cleveland Center
Sat 06:54:10 PM 42.3439 -77.5014 305° West 329 379 24,000  Level Cleveland Center
Sat 06:55:10 PM 42.3989 -77.6056 306° West 329 379 24,000  Level Cleveland Center
Sat 06:56:10 PM 42.4517 -77.7100 304° West 329 379 24,000  Level Cleveland Center
Sat 06:57:10 PM 42.5019 -77.8092 305° West 329 379 24,000  Level Cleveland Center
Sat 06:58:10 PM 42.5497 -77.8972 306° West 329 379 24,000  Level Cleveland Center
Sat 06:59:10 PM 42.6022 -78.0022 304° West 329 379 24,000  Level Cleveland Center
Sat 07:00:10 PM 42.6544 -78.1044 305° West 329 379 24,000  Level Cleveland Center
Sat 07:01:10 PM 42.7067 -78.2014 306° West 329 379 24,000 -150 Level Cleveland Center
Sat 07:02:10 PM 42.7589 -78.3069 304° West 329 379 23,700 -650 Descending Cleveland Center
Sat 07:03:10 PM 42.8108 -78.4097 305° West 329 379 22,700 -1,100 Descending Cleveland Center
Sat 07:04:10 PM 42.8628 -78.5128 305° West 329 379 21,500 -1,300 Descending Cleveland Center
Sat 07:05:10 PM 42.9144 -78.6131 305° West 329 379 20,100 -1,500 Descending Cleveland Center
Sat 07:06:10 PM 42.9661 -78.7136 305° West 329 379 18,500 -1,925 Descending Cleveland Center
Sat 07:07:49 PM 43.0500 -78.8833 304° West 330 380 15,000 -2,075 Descending Toronto Center
Sat 07:08:49 PM 43.1000 -78.9667 309° West 320 368 13,000 -1,500 Descending Toronto Center
Sat 07:09:49 PM 43.1500 -79.0667 304° West 310 357 12,000 -1,050 Descending Toronto Center
Sat 07:10:49 PM 43.2000 -79.1500 309° West 300 345 10,900 -1,050 Descending Toronto Center
Sat 07:11:49 PM 43.2500 -79.2500 304° West 270 311 9,900 -900 Descending Toronto Center
Sat 07:12:49 PM 43.2833 -79.3167 304° West 270 311 9,100 -450 Descending Toronto Center
Sat 07:13:49 PM 43.3500 -79.3833 324° Northwest 270 311 9,000 -500 Descending Toronto Center
Sat 07:14:49 PM 43.4167 -79.4333 331° Northwest 280 322 8,100 -500 Descending Toronto Center
Sat 07:15:49 PM 43.4833 -79.4667 340° North 260 299 8,000 -50 Descending Toronto Center
Sat 07:16:49 PM 43.5500 -79.5000 340° North 270 311 8,000 -600 Level Toronto Center
Sat 07:17:49 PM 43.6167 -79.4333 36° Northeast 280 322 6,800 -1,400 Descending Toronto Center
Sat 07:18:49 PM 43.6667 -79.3833 36° Northeast 260 299 5,200 -1,400 Descending Toronto Center
Sat 07:19:49 PM 43.7333 -79.3333 28° Northeast 250 288 4,000 -750 Descending Toronto Center
Sat 07:20:49 PM 43.7833 -79.3833 324° Northwest 220 253 3,700 -500 Descending Toronto Center
Sat 07:21:49 PM 43.7500 -79.4500 235° Southwest 220 253 3,000 -800 Descending Toronto Center
Sat 07:22:49 PM 43.7167 -79.5000 227° Southwest 160 184 2,100 -750 Descending Toronto Center
Sat 07:23:49 PM 43.7000 -79.5333 235° Southwest 120 138 1,500 -533 Descending Toronto Center
Sat 07:25:49 PM 43.6667 -79.5833 227° Southwest 110 127 500 -500 Descending Toronto Center

Login

Don't have an account? Register now (free) for customized features, flight alerts, and more!